Time;durP1;ratioP1;P1;durP2;ratioP2;P2;SDS_P1;SDS_P2;PMS_P1;PMS_P2;Temp;Humidity;BMP_temperature;BMP_pressure;BME280_temperature;BME280_humidity;BME280_pressure;Samples;Min_cycle;Max_cycle;Signal;HPM_P1;HPM_P2
2022/04/03 00:02:12;;;;;;;;;16.75;16.00;;;;;5.72;45.18;101909.31;6219329;22;69029;-87
2022/04/03 00:04:51;;;;;;;;;17.00;15.00;;;;;5.65;44.67;101889.03;6220678;22;45331;-87
2022/04/03 00:07:19;;;;;;;;;19.75;17.50;;;;;5.85;44.83;101926.28;6222418;22;46830;-92
2022/04/03 00:10:21;;;;;;;;;11.25;11.25;;;;;5.62;45.19;101904.59;6219392;22;45379;-89
2022/04/03 00:12:47;;;;;;;;;18.00;15.50;;;;;5.78;45.06;101936.47;6211702;22;45518;-84
2022/04/03 00:15:16;;;;;;;;;16.00;15.00;;;;;5.74;44.79;101931.13;6218629;22;45162;-84
2022/04/03 00:17:43;;;;;;;;;19.50;18.25;;;;;5.64;45.34;101910.75;6216572;22;46135;-83
2022/04/03 00:20:10;;;;;;;;;16.00;13.75;;;;;5.74;44.97;101919.78;6215932;22;45249;-84
2022/04/03 00:22:35;;;;;;;;;15.75;15.75;;;;;5.66;45.36;101918.63;6215423;22;45246;-84
2022/04/03 00:25:02;;;;;;;;;15.00;13.00;;;;;5.74;45.19;101928.50;6216089;22;45173;-83
2022/04/03 00:27:28;;;;;;;;;20.00;18.75;;;;;5.78;45.29;101937.38;6241469;22;47400;-83
2022/04/03 00:29:54;;;;;;;;;13.75;10.50;;;;;5.60;45.33;101907.97;6215589;22;45251;-82
2022/04/03 00:32:28;;;;;;;;;17.25;17.25;;;;;5.52;45.69;101900.75;6241629;22;45325;-83
2022/04/03 00:34:54;;;;;;;;;19.00;14.50;;;;;5.62;46.04;101919.38;6217536;22;45223;-84
2022/04/03 00:37:19;;;;;;;;;13.25;11.50;;;;;5.61;45.96;101923.69;6217208;22;48427;-84
2022/04/03 00:39:45;;;;;;;;;16.00;15.75;;;;;5.52;46.23;101920.75;6216715;22;45251;-84
2022/04/03 00:42:11;;;;;;;;;20.50;18.50;;;;;5.61;46.50;101931.53;6216398;22;45326;-84
2022/04/03 00:44:36;;;;;;;;;15.50;14.25;;;;;5.50;46.21;101914.59;6217452;22;45473;-83
2022/04/03 00:47:05;;;;;;;;;20.00;14.50;;;;;5.37;46.23;101897.59;6217334;22;47467;-83
2022/04/03 00:49:31;;;;;;;;;18.75;15.00;;;;;5.35;46.81;101895.78;6219962;22;45171;-84
2022/04/03 00:51:58;;;;;;;;;17.50;16.75;;;;;5.26;46.76;101893.69;6217658;22;45271;-84
2022/04/03 00:54:23;;;;;;;;;18.50;17.25;;;;;5.37;46.96;101912.38;6217558;22;45161;-83
2022/04/03 00:56:49;;;;;;;;;14.25;11.50;;;;;5.35;46.98;101909.72;6215631;22;46933;-83
2022/04/03 00:59:15;;;;;;;;;7.00;6.50;;;;;5.35;47.25;101901.88;6217936;22;45228;-84
2022/04/03 01:01:42;;;;;;;;;15.75;14.00;;;;;5.44;47.00;101906.53;6218017;22;45483;-84
2022/04/03 01:04:08;;;;;;;;;19.50;18.75;;;;;5.36;47.01;101898.44;6216170;22;45480;-85
2022/04/03 01:06:34;;;;;;;;;15.25;13.75;;;;;5.40;46.95;101910.78;6215743;22;46912;-84
2022/04/03 01:08:59;;;;;;;;;13.25;11.75;;;;;5.55;47.16;101935.66;6217599;22;45277;-83
2022/04/03 01:11:25;;;;;;;;;12.75;12.50;;;;;5.46;47.18;101912.72;6217654;22;45221;-84
2022/04/03 01:13:52;;;;;;;;;16.25;16.00;;;;;5.31;47.46;101894.75;6216804;22;45595;-84
2022/04/03 01:16:18;;;;;;;;;18.75;15.75;;;;;5.53;47.62;101938.19;6218982;22;45289;-84
2022/04/03 01:18:44;;;;;;;;;19.00;15.50;;;;;5.23;47.53;101897.09;6217176;22;45182;-84
2022/04/03 01:21:10;;;;;;;;;18.25;15.25;;;;;5.32;47.54;101907.00;6216863;22;45164;-83
2022/04/03 01:23:36;;;;;;;;;16.00;16.00;;;;;5.23;47.52;101901.41;6217113;22;45328;-85
2022/04/03 01:26:01;;;;;;;;;12.00;10.50;;;;;5.30;47.65;101906.03;6216689;22;46926;-84
2022/04/03 01:28:27;;;;;;;;;19.75;16.25;;;;;5.29;47.63;101904.25;6217204;22;45351;-84
2022/04/03 01:30:52;;;;;;;;;16.00;14.00;;;;;5.27;47.67;101914.66;6219540;22;45347;-85
2022/04/03 01:33:18;;;;;;;;;13.25;12.00;;;;;5.13;47.63;101886.25;6220816;22;45387;-84
2022/04/03 01:35:47;;;;;;;;;15.25;14.00;;;;;5.25;47.72;101916.31;6222908;22;45485;-85
2022/04/03 01:38:13;;;;;;;;;16.50;13.75;;;;;5.31;47.90;101919.13;6220093;22;45264;-84
2022/04/03 01:40:38;;;;;;;;;18.50;15.75;;;;;5.20;47.44;101893.47;6217388;22;45223;-85
2022/04/03 01:43:09;;;;;;;;;19.00;14.75;;;;;5.28;48.17;101907.72;6242479;22;45221;-85
2022/04/03 01:45:38;;;;;;;;;16.75;15.25;;;;;5.31;47.99;101921.75;6218536;22;46288;-86
2022/04/03 01:48:05;;;;;;;;;13.25;12.00;;;;;5.24;48.31;101903.22;6218072;22;45151;-85
2022/04/03 01:50:31;;;;;;;;;15.50;13.00;;;;;5.35;47.93;101925.38;6220464;22;45390;-84
2022/04/03 01:52:57;;;;;;;;;16.00;12.75;;;;;5.37;47.84;101926.31;6217614;22;45362;-85
2022/04/03 01:55:25;;;;;;;;;17.00;13.75;;;;;5.21;48.31;101905.69;6217498;22;46716;-84
2022/04/03 01:57:52;;;;;;;;;10.25;7.50;;;;;5.22;48.45;101900.53;6220459;22;45255;-84
2022/04/03 02:00:18;;;;;;;;;17.25;15.75;;;;;5.16;48.53;101895.09;6220891;22;45250;-83
2022/04/03 02:02:45;;;;;;;;;18.25;13.25;;;;;5.30;48.14;101917.38;6218221;22;45503;-84
2022/04/03 02:05:11;;;;;;;;;17.75;14.75;;;;;5.16;48.50;101886.34;6220315;22;46155;-83
2022/04/03 02:07:36;;;;;;;;;11.50;11.00;;;;;5.26;48.21;101912.84;6217995;22;45495;-84
2022/04/03 02:10:12;;;;;;;;;15.00;14.00;;;;;5.14;48.46;101890.66;6218467;22;45387;-84
2022/04/03 02:12:39;;;;;;;;;13.25;12.00;;;;;5.34;48.45;101934.03;6218235;22;45622;-85
2022/04/03 02:15:05;;;;;;;;;11.00;11.00;;;;;5.25;48.24;101910.22;6220361;22;45660;-84
2022/04/03 02:17:31;;;;;;;;;12.25;10.00;;;;;5.06;48.18;101882.53;6218900;22;45528;-83
2022/04/03 02:19:57;;;;;;;;;19.75;13.50;;;;;5.33;48.80;101928.78;6220400;22;45252;-84
2022/04/03 02:22:23;;;;;;;;;10.75;10.75;;;;;5.32;48.54;101927.88;6240180;22;45186;-84
2022/04/03 02:24:48;;;;;;;;;14.75;11.50;;;;;5.30;48.82;101938.25;6222604;22;47470;-84
2022/04/03 02:27:14;;;;;;;;;15.75;13.50;;;;;5.14;48.60;101908.94;6223770;22;45193;-83
2022/04/03 02:29:39;;;;;;;;;13.00;13.00;;;;;5.05;48.83;101889.50;6222671;22;45301;-84
2022/04/03 02:32:05;;;;;;;;;14.50;11.50;;;;;5.24;48.67;101925.00;6221707;22;45375;-84
2022/04/03 02:34:30;;;;;;;;;8.50;8.50;;;;;5.28;48.76;101933.81;6221755;22;47865;-84
2022/04/03 02:36:56;;;;;;;;;12.50;11.50;;;;;5.19;48.88;101915.22;6222221;22;45306;-85
2022/04/03 02:39:22;;;;;;;;;15.25;11.25;;;;;5.20;48.75;101924.81;6223161;22;45316;-85
2022/04/03 02:41:47;;;;;;;;;14.75;14.25;;;;;5.15;48.68;101914.19;6251071;22;45487;-85
2022/04/03 02:44:15;;;;;;;;;14.50;12.00;;;;;5.16;49.00;101909.84;6223460;22;47261;-85
2022/04/03 02:46:41;;;;;;;;;12.50;10.75;;;;;5.12;48.61;101907.97;6224409;22;45184;-85
2022/04/03 02:49:08;;;;;;;;;14.00;12.00;;;;;5.12;48.53;101901.03;6224240;22;45245;-86
2022/04/03 02:51:36;;;;;;;;;8.75;8.75;;;;;5.16;48.91;101902.94;6251702;22;45185;-85
2022/04/03 02:54:02;;;;;;;;;15.00;13.75;;;;;5.32;49.11;101935.72;6222583;22;46220;-85
2022/04/03 02:56:28;;;;;;;;;11.00;11.00;;;;;5.04;49.21;101887.69;6221944;22;45267;-86
2022/04/03 02:58:54;;;;;;;;;12.50;11.75;;;;;5.24;48.65;101927.59;6250205;22;45236;-86
2022/04/03 03:01:20;;;;;;;;;13.75;13.75;;;;;5.17;49.39;101920.38;6250841;22;45347;-85
2022/04/03 03:03:45;;;;;;;;;12.00;12.00;;;;;5.30;48.56;101945.22;6223083;22;46897;-85
2022/04/03 03:06:11;;;;;;;;;15.25;14.00;;;;;5.25;49.37;101938.94;6223406;22;46117;-85
2022/04/03 03:08:37;;;;;;;;;15.00;15.00;;;;;4.97;49.17;101892.63;6222611;22;45297;-84
2022/04/03 03:11:03;;;;;;;;;8.00;8.00;;;;;4.98;49.38;101907.47;6222751;22;45496;-85
2022/04/03 03:13:29;;;;;;;;;12.50;11.75;;;;;5.03;49.09;101918.97;6223050;22;48119;-85
2022/04/03 03:15:55;;;;;;;;;9.00;7.25;;;;;4.94;49.63;101901.22;6221705;22;45253;-85
2022/04/03 03:18:20;;;;;;;;;15.25;11.00;;;;;5.13;49.69;101952.38;6222791;22;45222;-84
2022/04/03 03:20:46;;;;;;;;;14.50;14.00;;;;;4.96;49.16;101920.44;6223609;22;45442;-85
2022/04/03 03:23:12;;;;;;;;;12.00;10.75;;;;;5.19;49.91;101949.16;6224968;22;47131;-84
2022/04/03 03:25:37;;;;;;;;;14.50;13.75;;;;;4.98;49.50;101920.50;6225299;22;45293;-85
2022/04/03 03:28:03;;;;;;;;;13.25;13.25;;;;;4.96;49.27;101924.78;6224473;22;45512;-84
2022/04/03 03:30:29;;;;;;;;;12.00;12.00;;;;;4.91;49.39;101926.31;6225511;22;45515;-84
2022/04/03 03:32:54;;;;;;;;;15.25;13.75;;;;;5.07;49.74;101952.16;6225625;22;48064;-85
2022/04/03 03:35:20;;;;;;;;;13.50;13.50;;;;;5.05;49.88;101956.44;6225777;22;45354;-85
2022/04/03 03:37:45;;;;;;;;;9.75;9.75;;;;;5.11;49.90;101964.50;6253227;22;45262;-84
2022/04/03 03:40:14;;;;;;;;;11.00;11.00;;;;;5.08;49.84;101972.22;6224681;22;45118;-85
2022/04/03 03:42:41;;;;;;;;;11.50;11.25;;;;;4.98;50.20;101941.38;6249371;22;47092;-84
2022/04/03 03:45:08;;;;;;;;;11.00;10.75;;;;;4.89;49.99;101920.13;6251956;22;45390;-85
2022/04/03 03:47:34;;;;;;;;;10.75;10.00;;;;;5.12;50.00;101960.19;6224093;22;45351;-83
2022/04/03 03:49:59;;;;;;;;;14.25;11.00;;;;;4.93;49.66;101933.38;6251637;22;45296;-84
2022/04/03 03:52:25;;;;;;;;;14.50;11.75;;;;;5.02;49.91;101951.09;6223628;22;47773;-85
2022/04/03 03:54:53;;;;;;;;;15.25;12.25;;;;;4.98;50.01;101944.00;6251872;22;45143;-86
2022/04/03 03:57:18;;;;;;;;;15.50;10.00;;;;;4.78;50.26;101915.38;6251373;22;44607;-85
2022/04/03 03:59:44;;;;;;;;;14.75;12.00;;;;;4.99;50.12;101961.41;6223757;22;45479;-85
2022/04/03 04:02:09;;;;;;;;;12.50;11.75;;;;;4.90;49.90;101950.66;6253581;22;46126;-87
2022/04/03 04:04:35;;;;;;;;;15.75;13.50;;;;;4.81;50.12;101939.03;6225310;22;45113;-86
2022/04/03 04:07:01;;;;;;;;;10.75;9.00;;;;;4.93;49.74;101975.13;6224997;22;45363;-86
2022/04/03 04:09:26;;;;;;;;;12.00;12.00;;;;;4.72;50.27;101933.44;6252708;22;45386;-86
2022/04/03 04:11:52;;;;;;;;;12.25;11.00;;;;;4.86;49.93;101974.00;6252341;22;45335;-84
2022/04/03 04:14:17;;;;;;;;;14.75;11.00;;;;;4.67;50.13;101944.50;6224985;22;45393;-84
2022/04/03 04:16:43;;;;;;;;;11.75;9.25;;;;;4.60;50.17;101936.44;6253445;22;45259;-83
2022/04/03 04:19:09;;;;;;;;;9.75;8.75;;;;;4.52;50.47;101936.97;6252210;22;45449;-85
2022/04/03 04:21:35;;;;;;;;;12.25;10.50;;;;;4.51;50.43;101949.09;6223646;22;47335;-83
2022/04/03 04:24:01;;;;;;;;;12.50;11.25;;;;;4.42;50.51;101938.31;6223894;22;45186;-84
2022/04/03 04:26:26;;;;;;;;;11.25;10.00;;;;;4.54;50.94;101972.69;6251462;22;45266;-84
2022/04/03 04:28:55;;;;;;;;;11.00;11.00;;;;;4.50;51.15;101982.97;6223629;22;45186;-84
2022/04/03 04:31:20;;;;;;;;;12.50;11.50;;;;;4.39;50.66;101975.56;6223977;22;46510;-84
2022/04/03 04:33:46;;;;;;;;;11.25;11.25;;;;;4.35;50.15;101970.16;6252276;22;45395;-83
2022/04/03 04:36:11;;;;;;;;;10.50;10.50;;;;;4.42;51.09;101998.28;6227073;22;45297;-84
2022/04/03 04:38:37;;;;;;;;;12.50;10.75;;;;;4.13;50.86;101964.06;6226703;22;45338;-85
2022/04/03 04:41:03;;;;;;;;;11.25;11.25;;;;;4.12;51.10;101964.91;6224573;22;47020;-85
2022/04/03 04:43:29;;;;;;;;;14.25;12.00;;;;;4.16;51.25;101985.03;6225092;22;45281;-85
2022/04/03 04:45:55;;;;;;;;;10.00;10.00;;;;;4.03;51.39;101980.13;6225557;22;45262;-84
2022/04/03 04:48:20;;;;;;;;;12.50;9.50;;;;;3.91;51.36;101964.88;6226360;22;45151;-84
2022/04/03 04:50:50;;;;;;;;;10.00;9.00;;;;;3.98;51.51;101990.38;6226419;22;47005;-85
2022/04/03 04:53:15;;;;;;;;;15.25;14.75;;;;;3.91;51.37;101990.03;6253077;22;45201;-85
2022/04/03 04:55:42;;;;;;;;;13.00;13.00;;;;;3.64;51.91;101948.94;6225916;22;45131;-85
2022/04/03 04:58:07;;;;;;;;;13.00;12.00;;;;;3.92;51.74;102018.72;6225091;22;45365;-84
2022/04/03 05:00:33;;;;;;;;;20.75;14.25;;;;;3.57;51.94;101962.50;6225203;22;46902;-84
2022/04/03 05:02:59;;;;;;;;;10.50;9.00;;;;;3.88;51.52;102010.75;6224828;22;45419;-83
2022/04/03 05:05:27;;;;;;;;;12.00;12.00;;;;;3.61;51.74;101977.44;6224391;22;45375;-84
2022/04/03 05:07:58;;;;;;;;;11.00;10.25;;;;;3.64;51.83;101997.53;6223780;22;45574;-84
2022/04/03 05:10:25;;;;;;;;;15.25;11.00;;;;;3.65;51.97;102004.50;6224362;22;47205;-83
2022/04/03 05:12:53;;;;;;;;;10.75;10.00;;;;;3.42;52.47;101975.72;6224015;22;45169;-83
2022/04/03 05:15:19;;;;;;;;;13.25;10.75;;;;;3.58;52.09;102007.63;6252219;22;45134;-84
2022/04/03 05:17:45;;;;;;;;;9.25;9.25;;;;;3.35;52.11;101997.09;6225207;22;45394;-84
2022/04/03 05:20:13;;;;;;;;;11.50;10.50;;;;;3.41;52.16;101993.88;6224729;22;48327;-84
2022/04/03 05:22:40;;;;;;;;;9.75;9.75;;;;;3.39;51.98;102006.81;6223497;22;45379;-84
2022/04/03 05:25:11;;;;;;;;;13.75;10.75;;;;;3.21;52.19;101972.16;6223615;22;45232;-84
2022/04/03 05:27:37;;;;;;;;;15.25;12.75;;;;;3.22;52.43;101985.22;6224063;22;46156;-84
2022/04/03 05:30:04;;;;;;;;;5.50;2.00;;;;;3.30;51.67;101993.38;6224070;22;47401;-85
2022/04/03 05:32:31;;;;;;;;;13.50;13.25;;;;;3.11;52.03;101962.13;6224196;22;45386;-85
2022/04/03 05:34:58;;;;;;;;;11.75;11.75;;;;;3.19;52.25;101979.00;6252186;22;45162;-84
2022/04/03 05:37:25;;;;;;;;;13.50;9.50;;;;;3.37;51.64;102020.56;6224429;22;45189;-84
2022/04/03 05:39:51;;;;;;;;;12.75;12.75;;;;;3.12;51.97;101977.81;6251835;22;45139;-84
2022/04/03 05:42:20;;;;;;;;;12.50;9.50;;;;;3.15;51.84;101988.34;6223781;22;45352;-85
2022/04/03 05:44:47;;;;;;;;;9.75;9.75;;;;;3.26;51.87;102001.84;6222267;22;45359;-85
2022/04/03 05:47:13;;;;;;;;;15.50;13.00;;;;;3.23;51.79;101996.50;6220884;22;45459;-85
2022/04/03 05:49:38;;;;;;;;;16.50;10.00;;;;;3.26;51.97;102007.97;6221423;22;47430;-84
2022/04/03 05:52:05;;;;;;;;;11.75;10.75;;;;;3.14;51.81;101990.91;6249549;22;45157;-85
2022/04/03 05:54:30;;;;;;;;;15.50;12.50;;;;;3.33;51.84;102026.47;6222701;22;45307;-85
2022/04/03 05:56:56;;;;;;;;;10.00;9.75;;;;;3.24;51.54;101993.09;6249504;22;45327;-85
2022/04/03 05:59:22;;;;;;;;;11.25;11.25;;;;;3.28;51.93;102021.03;6248817;22;45363;-84
2022/04/03 06:01:48;;;;;;;;;14.00;12.25;;;;;3.40;51.92;102041.56;6222007;22;45455;-84
2022/04/03 06:04:14;;;;;;;;;14.00;12.00;;;;;3.33;51.58;102035.16;6222343;22;45384;-84
2022/04/03 06:06:40;;;;;;;;;13.50;13.50;;;;;3.25;51.90;102029.59;6249939;22;45453;-83
2022/04/03 06:09:05;;;;;;;;;7.00;5.25;;;;;3.42;51.81;102064.22;6222033;22;46920;-84
2022/04/03 06:11:31;;;;;;;;;13.50;10.00;;;;;3.29;51.73;102048.88;6220647;22;45196;-84
2022/04/03 06:13:56;;;;;;;;;14.75;13.00;;;;;3.19;51.92;102018.91;6221359;22;45119;-83
2022/04/03 06:16:22;;;;;;;;;14.25;12.75;;;;;3.09;51.60;102021.88;6220633;22;45525;-84
2022/04/03 06:18:47;;;;;;;;;12.75;12.75;;;;;3.35;51.57;102062.16;6220696;22;47664;-84
2022/04/03 06:21:13;;;;;;;;;13.00;11.50;;;;;3.35;51.63;102066.47;6220483;22;45196;-84
2022/04/03 06:23:38;;;;;;;;;14.75;13.00;;;;;3.33;51.43;102057.69;6248448;22;45411;-84
2022/04/03 06:26:04;;;;;;;;;13.25;13.25;;;;;3.17;51.77;102033.53;6220163;22;45151;-84
2022/04/03 06:28:30;;;;;;;;;13.50;11.00;;;;;3.17;51.60;102030.06;6220599;22;46787;-85
2022/04/03 06:30:56;;;;;;;;;10.50;10.50;;;;;3.20;51.30;102046.69;6248338;22;45209;-84
2022/04/03 06:33:22;;;;;;;;;12.75;11.00;;;;;3.22;51.50;102041.56;6248746;22;45362;-86
2022/04/03 06:35:48;;;;;;;;;10.50;10.00;;;;;3.25;50.60;102053.00;6220538;22;45650;-84
2022/04/03 06:38:19;;;;;;;;;10.00;9.25;;;;;3.13;51.05;102036.84;6247994;22;45406;-85
2022/04/03 06:40:53;;;;;;;;;13.00;9.50;;;;;3.17;50.87;102056.06;6247463;22;45140;-85
2022/04/03 06:43:25;;;;;;;;;5.00;5.00;;;;;3.18;50.57;102052.66;6220099;22;45193;-83
2022/04/03 06:45:52;;;;;;;;;9.75;9.75;;;;;3.31;50.87;102076.75;6220510;22;45431;-86
2022/04/03 06:48:18;;;;;;;;;12.50;9.75;;;;;3.31;51.01;102078.44;6223307;22;47979;-83
2022/04/03 06:50:43;;;;;;;;;9.25;8.75;;;;;3.36;50.70;102076.94;6222106;22;45181;-82
2022/04/03 06:53:09;;;;;;;;;12.25;10.00;;;;;3.21;50.89;102052.81;6248359;22;45219;-83
2022/04/03 06:55:35;;;;;;;;;11.50;9.00;;;;;3.22;50.38;102050.28;6220530;22;45263;-84
2022/04/03 06:58:01;;;;;;;;;12.00;10.50;;;;;3.49;50.27;102096.63;6247196;22;46111;-83
2022/04/03 07:00:27;;;;;;;;;9.50;9.00;;;;;3.45;50.39;102084.31;6220025;22;45752;-83
2022/04/03 07:02:52;;;;;;;;;10.00;9.25;;;;;3.46;50.28;102071.34;6248414;22;45364;-84
2022/04/03 07:05:18;;;;;;;;;12.00;10.00;;;;;3.52;49.78;102079.44;6220123;22;45309;-84
2022/04/03 07:07:44;;;;;;;;;13.25;10.25;;;;;3.65;49.95;102096.53;6220122;22;48147;-81
2022/04/03 07:10:10;;;;;;;;;6.00;4.00;;;;;3.76;49.68;102103.09;6219634;22;45355;-82
2022/04/03 07:12:35;;;;;;;;;12.50;12.00;;;;;3.78;49.48;102105.81;6247517;22;45300;-82
2022/04/03 07:15:03;;;;;;;;;17.00;14.00;;;;;3.71;49.92;102082.88;6219833;22;45775;-84
2022/04/03 07:17:28;;;;;;;;;7.50;7.50;;;;;3.65;49.38;102073.09;6220318;22;47969;-84
2022/04/03 07:19:54;;;;;;;;;16.00;13.00;;;;;3.82;49.06;102104.22;6222800;22;45134;-84
2022/04/03 07:22:20;;;;;;;;;8.25;7.00;;;;;3.83;49.22;102109.50;6215192;22;45372;-85
2022/04/03 07:24:47;;;;;;;;;8.00;8.00;;;;;3.73;48.71;102091.66;6217571;22;45177;-85
2022/04/03 07:27:13;;;;;;;;;8.50;6.25;;;;;3.79;49.03;102098.88;6216409;22;47616;-83
2022/04/03 07:29:38;;;;;;;;;13.25;11.50;;;;;3.88;49.03;102096.69;6214902;22;45290;-83
2022/04/03 07:32:04;;;;;;;;;13.00;10.50;;;;;3.80;49.08;102078.13;6217118;22;45177;-84
2022/04/03 07:34:30;;;;;;;;;11.50;8.50;;;;;4.15;48.83;102125.72;6215208;22;45490;-84
2022/04/03 07:36:56;;;;;;;;;13.25;10.25;;;;;4.18;48.50;102113.69;6215397;22;47001;-85
2022/04/03 07:39:23;;;;;;;;;9.25;9.25;;;;;4.24;48.13;102113.06;6218239;22;45233;-86
2022/04/03 07:41:56;;;;;;;;;10.25;10.25;;;;;4.25;48.64;102098.31;6220071;22;45193;-86
2022/04/03 07:44:27;;;;;;;;;10.75;9.00;;;;;4.20;48.12;102067.75;6217324;22;45483;-86
2022/04/03 07:47:14;;;;;;;;;13.50;10.00;;;;;4.44;48.15;102090.50;6215884;22;45500;-86
2022/04/03 07:49:40;;;;;;;;;10.75;10.75;;;;;4.68;48.01;102123.63;6215370;22;45454;-81
2022/04/03 07:52:06;;;;;;;;;16.25;11.50;;;;;4.49;47.40;102078.56;6218748;22;45311;-82
2022/04/03 07:54:32;;;;;;;;;10.00;9.75;;;;;4.59;47.13;102083.31;6214973;22;45255;-82
2022/04/03 07:56:58;;;;;;;;;9.50;6.50;;;;;4.62;46.71;102085.16;6214963;22;46687;-83
2022/04/03 07:59:23;;;;;;;;;10.75;9.75;;;;;4.83;46.59;102100.81;6217074;22;45167;-83
2022/04/03 08:01:52;;;;;;;;;9.75;7.00;;;;;4.70;46.33;102091.56;6217159;22;45173;-84
2022/04/03 08:04:17;;;;;;;;;8.75;7.00;;;;;4.93;46.19;102118.63;6214925;22;45370;-84
2022/04/03 08:06:43;;;;;;;;;7.00;6.00;;;;;4.91;46.00;102095.91;6214788;22;47404;-84
2022/04/03 08:09:12;;;;;;;;;6.00;6.00;;;;;4.93;45.27;102096.88;6214659;22;45356;-84
2022/04/03 08:11:37;;;;;;;;;7.25;6.75;;;;;5.19;45.20;102137.09;6216835;22;45249;-84
2022/04/03 08:14:03;;;;;;;;;6.00;6.00;;;;;5.18;45.92;102130.06;6213733;22;45451;-83
2022/04/03 08:16:28;;;;;;;;;5.00;5.00;;;;;5.26;44.90;102134.78;6216720;22;46002;-84
2022/04/03 08:18:54;;;;;;;;;7.00;5.50;;;;;5.34;44.61;102128.97;6216957;22;45161;-84
2022/04/03 08:21:19;;;;;;;;;6.25;6.25;;;;;5.42;43.79;102130.16;6214834;22;45419;-84
2022/04/03 08:23:45;;;;;;;;;1.50;1.50;;;;;5.34;43.90;102116.81;6215764;22;45734;-84
2022/04/03 08:26:12;;;;;;;;;8.00;6.75;;;;;5.44;43.53;102118.97;6217446;22;46498;-83
2022/04/03 08:28:37;;;;;;;;;10.50;10.00;;;;;5.53;44.27;102113.19;6241391;22;45270;-84
2022/04/03 08:31:03;;;;;;;;;6.00;6.00;;;;;5.74;43.57;102123.59;6215672;22;45283;-83
2022/04/03 08:33:28;;;;;;;;;6.00;5.25;;;;;5.80;43.54;102120.31;6213156;22;45380;-83
2022/04/03 08:35:55;;;;;;;;;6.75;6.75;;;;;5.87;42.74;102132.78;6214773;22;48158;-83
2022/04/03 08:38:21;;;;;;;;;6.50;6.00;;;;;5.93;42.40;102131.34;6215296;22;45338;-82
2022/04/03 08:40:46;;;;;;;;;3.25;3.25;;;;;6.02;42.05;102133.41;6214347;22;45289;-81
2022/04/03 08:43:17;;;;;;;;;9.75;7.00;;;;;6.12;41.65;102140.78;6214840;22;45711;-82
2022/04/03 08:45:42;;;;;;;;;7.00;6.75;;;;;6.07;41.94;102113.56;6215906;22;47740;-82
2022/04/03 08:48:09;;;;;;;;;5.00;3.00;;;;;6.16;41.11;102120.84;6215747;22;45302;-81
2022/04/03 08:50:39;;;;;;;;;5.75;4.50;;;;;6.22;40.41;102115.81;6216418;22;45399;-82
2022/04/03 08:53:06;;;;;;;;;4.75;3.00;;;;;6.32;40.52;102117.94;6217572;22;45208;-82
2022/04/03 08:55:33;;;;;;;;;8.00;6.00;;;;;6.57;40.30;102135.38;6218922;22;45528;-82
2022/04/03 08:57:59;;;;;;;;;4.75;4.75;;;;;6.66;38.00;102144.41;6216213;22;45435;-83
2022/04/03 09:00:24;;;;;;;;;7.25;6.50;;;;;6.54;37.71;102127.44;6215815;22;45224;-82
2022/04/03 09:02:50;;;;;;;;;4.00;4.00;;;;;6.77;38.32;102150.91;6215528;22;45518;-82
2022/04/03 09:05:17;;;;;;;;;6.50;2.00;;;;;6.73;36.21;102135.94;6216122;22;47068;-83
2022/04/03 09:07:58;;;;;;;;;0.00;0.00;;;;;6.79;36.00;102130.88;6218996;22;45254;-82
2022/04/03 09:10:32;;;;;;;;;2.25;2.25;;;;;6.86;35.92;102143.34;6217488;22;45356;-83
2022/04/03 09:13:05;;;;;;;;;5.00;4.25;;;;;6.85;35.68;102139.84;6217558;22;45324;-83
2022/04/03 09:15:37;;;;;;;;;2.50;2.00;;;;;6.97;35.27;102143.72;6216980;22;47321;-83
2022/04/03 09:18:06;;;;;;;;;3.00;2.00;;;;;6.91;34.56;102118.22;6216293;22;45428;-82
2022/04/03 09:20:36;;;;;;;;;4.25;3.00;;;;;7.15;34.29;102151.31;6241974;22;45378;-84
2022/04/03 09:23:15;;;;;;;;;3.00;3.00;;;;;7.05;34.69;102116.06;6249848;22;44570;-85
2022/04/03 09:25:44;;;;;;;;;3.00;3.00;;;;;7.20;33.71;102126.16;6225987;22;47874;-86
2022/04/03 09:28:14;;;;;;;;;2.75;2.75;;;;;7.32;34.27;102125.66;6225862;22;45361;-83
2022/04/03 09:30:57;;;;;;;;;;;;;;;;;;;;;
2022/04/03 09:33:23;;;;;;;;;3.25;3.25;;;;;7.35;34.60;102123.13;6257169;22;71873;-84
2022/04/03 09:43:39;;;;;;;;;3.75;3.75;;;;;7.68;34.55;102125.94;6171602;23;45332;-86
2022/04/03 09:46:13;;;;;;;;;5.75;3.00;;;;;7.79;34.22;102110.53;6171662;23;45242;-87
2022/04/03 09:54:54;;;;;;;;;5.50;5.00;;;;;8.01;33.55;102126.03;6174567;22;46223;-87
2022/04/03 09:57:26;;;;;;;;;4.25;4.25;;;;;8.02;33.92;102116.41;6236523;22;44696;-86
2022/04/03 09:59:54;;;;;;;;;2.25;2.25;;;;;8.06;32.60;102102.56;6199341;22;46909;-86
2022/04/03 10:02:24;;;;;;;;;4.00;3.00;;;;;8.23;33.51;102124.00;6207602;22;44717;-82
2022/04/03 10:11:15;;;;;;;;;3.75;2.50;;;;;8.57;32.99;102103.13;6205654;22;45090;-87
2022/04/03 10:14:40;;;;;;;;;;;;;;;;;;;;;
2022/04/03 10:17:27;;;;;;;;;0.00;0.00;;;;;8.66;32.22;102096.34;6226429;22;68796;-88
2022/04/03 10:37:55;;;;;;;;;;;;;;;;;;;;;
2022/04/03 10:43:32;;;;;;;;;1.75;1.75;;;;;9.70;30.62;102117.22;6153958;23;45471;-83
2022/04/03 10:46:08;;;;;;;;;2.25;1.00;;;;;9.70;30.67;102093.56;6174423;22;45365;-85
2022/04/03 10:49:05;;;;;;;;;3.50;3.50;;;;;9.96;30.52;102094.13;6188724;22;47506;-86
2022/04/03 10:51:33;;;;;;;;;4.25;2.00;;;;;10.13;30.02;102110.25;6180502;22;45538;-86
2022/04/03 10:54:05;;;;;;;;;1.75;1.75;;;;;10.19;31.10;102083.19;6188211;22;45350;-84
2022/04/03 10:56:32;;;;;;;;;1.25;1.00;;;;;10.44;30.16;102100.34;6187206;22;45232;-83
2022/04/03 10:58:58;;;;;;;;;3.00;3.00;;;;;10.46;30.14;102085.47;6187985;22;46173;-84
2022/04/03 11:01:28;;;;;;;;;3.75;3.25;;;;;10.57;30.28;102078.66;6216372;22;45378;-83
2022/04/03 11:04:01;;;;;;;;;1.25;1.00;;;;;10.86;30.34;102081.78;6188192;22;45339;-82
2022/04/03 11:06:31;;;;;;;;;3.50;3.50;;;;;10.93;29.93;102072.22;6187194;22;45529;-82
2022/04/03 11:09:05;;;;;;;;;1.75;1.75;;;;;10.97;29.28;102080.22;6186809;22;47567;-83
2022/04/03 11:11:38;;;;;;;;;4.00;3.50;;;;;11.12;29.73;102084.84;6214735;22;45326;-82
2022/04/03 11:14:12;;;;;;;;;12.00;12.00;;;;;11.13;29.56;102059.38;6189292;22;45605;-82
2022/04/03 11:16:52;;;;;;;;;5.00;3.25;;;;;11.42;29.64;102071.25;6215737;22;45529;-82
2022/04/03 11:19:40;;;;;;;;;3.50;3.50;;;;;11.43;28.62;102067.72;6216934;22;45389;-82
2022/04/03 11:22:08;;;;;;;;;4.25;3.00;;;;;11.27;28.65;102066.63;6188529;22;45313;-83
2022/04/03 11:24:36;;;;;;;;;4.00;4.00;;;;;11.17;29.10;102059.47;6188667;22;45214;-83
2022/04/03 11:27:01;;;;;;;;;4.50;4.50;;;;;11.22;29.12;102046.31;6188279;22;45270;-82
2022/04/03 11:29:27;;;;;;;;;3.00;3.00;;;;;11.30;29.46;102049.94;6188361;22;46646;-84
2022/04/03 11:31:53;;;;;;;;;3.50;3.00;;;;;11.48;29.34;102055.50;6187909;22;45207;-82
2022/04/03 11:34:18;;;;;;;;;1.50;1.50;;;;;11.31;28.14;102054.38;6188924;22;45501;-82
2022/04/03 11:36:47;;;;;;;;;6.00;3.00;;;;;10.98;27.64;102053.00;6215334;22;45276;-84
2022/04/03 11:39:24;;;;;;;;;1.00;1.00;;;;;10.66;28.24;102057.72;6188827;22;48151;-83
2022/04/03 11:41:53;;;;;;;;;2.75;2.75;;;;;10.62;28.76;102063.81;6216245;22;45269;-83
2022/04/03 11:44:21;;;;;;;;;4.25;3.75;;;;;10.62;28.95;102045.38;6193199;22;45485;-84
2022/04/03 11:46:49;;;;;;;;;4.50;4.00;;;;;10.62;28.87;102040.13;6214874;22;45394;-83
2022/04/03 11:49:25;;;;;;;;;4.25;3.75;;;;;10.70;28.84;102035.00;6187581;22;47104;-83
2022/04/03 11:52:09;;;;;;;;;3.75;3.25;;;;;10.97;29.12;102039.81;6186616;22;45234;-83
2022/04/03 11:54:37;;;;;;;;;5.50;5.50;;;;;11.26;28.96;102045.53;6187845;22;45350;-85
2022/04/03 12:00:57;;;;;;;;;7.00;7.00;;;;;11.83;28.51;102028.66;6149880;23;45497;-87
2022/04/03 12:04:16;;;;;;;;;;;;;;;;;;;;;
2022/04/03 12:13:45;;;;;;;;;4.50;3.25;;;;;12.48;27.74;102032.03;6063531;23;45793;-91
2022/04/03 12:19:51;;;;;;;;;4.00;3.25;;;;;12.65;27.75;102021.63;6201202;22;45368;-89
2022/04/03 12:22:43;;;;;;;;;3.75;3.75;;;;;13.09;27.89;102008.72;6187696;22;45487;-87
2022/04/03 12:25:12;;;;;;;;;2.00;1.00;;;;;13.38;27.20;102024.78;6214027;22;45963;-86
2022/04/03 13:41:58;;;;;;;;;;;;;;;;;;;;;
2022/04/03 13:44:30;;;;;;;;;6.00;4.75;;;;;13.69;26.05;101979.94;6249906;22;73063;-86